createdAt,value
2019-04-21T00:03:18.175Z,14.55
2019-04-21T00:06:59.843Z,14.45
2019-04-21T00:10:27.188Z,16.17
2019-04-21T00:13:42.558Z,13.90
2019-04-21T00:17:00.616Z,14.68
2019-04-21T00:20:28.870Z,15.50
2019-04-21T00:24:16.480Z,14.68
2019-04-21T00:27:47.751Z,15.20
2019-04-21T00:31:14.084Z,14.87
2019-04-21T00:34:21.762Z,14.10
2019-04-21T00:38:09.718Z,15.40
2019-04-21T00:41:29.652Z,16.40
2019-04-21T00:44:51.973Z,15.00
2019-04-21T00:48:25.531Z,14.23
2019-04-21T00:52:14.484Z,15.38
2019-04-21T00:55:30.958Z,16.00
2019-04-21T00:58:46.268Z,15.10
2019-04-21T01:02:09.156Z,15.43
2019-04-21T01:05:45.168Z,15.38
2019-04-21T01:08:59.065Z,15.45
2019-04-21T01:12:26.902Z,15.45
2019-04-21T01:15:57.186Z,16.02
2019-04-21T01:19:13.129Z,16.65
2019-04-21T01:22:19.724Z,16.57
2019-04-21T01:25:55.470Z,17.75
2019-04-21T01:29:29.006Z,17.67
2019-04-21T01:32:55.802Z,16.47
2019-04-21T01:36:13.992Z,16.60
2019-04-21T01:39:48.231Z,15.60
2019-04-21T01:43:24.902Z,18.43
2019-04-21T01:46:45.592Z,16.50
2019-04-21T01:50:02.849Z,17.00
2019-04-21T01:54:12.518Z,15.67
2019-04-21T01:57:52.768Z,17.50
2019-04-21T02:01:21.662Z,17.23
2019-04-21T02:04:54.259Z,17.93
2019-04-21T02:08:10.882Z,18.00
2019-04-21T02:11:35.744Z,18.30
2019-04-21T02:15:04.624Z,18.60
2019-04-21T02:18:34.947Z,18.20
2019-04-21T02:21:43.629Z,18.63
2019-04-21T02:25:20.125Z,19.17
2019-04-21T02:32:21.707Z,18.07
2019-04-21T02:36:12.223Z,19.10
2019-04-21T02:39:23.106Z,19.90
2019-04-21T02:42:39.509Z,19.13
2019-04-21T02:45:56.892Z,20.33
2019-04-21T02:49:45.385Z,19.83
2019-04-21T02:53:00.959Z,19.03
2019-04-21T02:56:20.451Z,20.73
2019-04-21T02:59:49.362Z,19.97
2019-04-21T03:07:19.242Z,18.80
2019-04-21T03:10:53.259Z,19.57
2019-04-21T03:14:16.771Z,20.37
2019-04-21T03:17:43.660Z,20.63
2019-04-21T03:21:08.557Z,20.47
2019-04-21T03:24:39.929Z,20.60
2019-04-21T03:31:34.761Z,20.67
2019-04-21T03:35:37.902Z,20.27
2019-04-21T03:38:16.743Z,21.20
2019-04-21T03:41:38.012Z,21.20
2019-04-21T03:48:30.498Z,20.63
2019-04-21T03:51:57.226Z,21.70
2019-04-21T03:55:48.854Z,21.30
2019-04-21T03:59:03.753Z,21.20
2019-04-21T04:02:24.402Z,22.20
2019-04-21T04:06:19.577Z,19.87
2019-04-21T04:09:54.018Z,22.57
2019-04-21T04:13:19.724Z,21.87
2019-04-21T04:16:50.222Z,22.27
2019-04-21T04:20:09.050Z,21.57
2019-04-21T04:23:43.809Z,22.50
2019-04-21T04:27:02.362Z,22.33
2019-04-21T04:30:21.764Z,22.87
2019-04-21T04:34:04.984Z,22.47
2019-04-21T04:40:46.912Z,23.47
2019-04-21T04:44:11.117Z,22.60
2019-04-21T04:47:37.088Z,21.90
2019-04-21T04:51:01.929Z,22.03
2019-04-21T04:54:39.878Z,21.60
2019-04-21T05:01:21.476Z,21.80
2019-04-21T05:08:08.594Z,21.30
2019-04-21T05:11:40.212Z,23.30
2019-04-21T05:14:51.707Z,22.83
2019-04-21T05:18:25.193Z,22.03
2019-04-21T05:24:58.410Z,22.20
2019-04-21T05:28:15.233Z,21.50
2019-04-21T05:32:12.807Z,22.40
2019-04-21T05:36:09.408Z,22.37
2019-04-21T05:39:37.941Z,23.00
2019-04-21T05:43:10.542Z,22.03
2019-04-21T05:46:32.317Z,22.03
2019-04-21T05:50:00.890Z,22.40
2019-04-21T05:56:55.526Z,20.03
2019-04-21T06:00:23.556Z,23.37
2019-04-21T06:03:49.162Z,25.90
2019-04-21T06:07:20.131Z,23.77
2019-04-21T06:10:38.345Z,22.23
2019-04-21T06:14:01.420Z,23.00
2019-04-21T06:17:30.288Z,24.37
2019-04-21T06:20:54.726Z,22.52
2019-04-21T06:24:15.742Z,22.35
2019-04-21T06:27:42.421Z,22.13
2019-04-21T06:31:14.582Z,22.75
2019-04-21T06:34:43.835Z,21.97
2019-04-21T06:37:56.493Z,22.77
2019-04-21T06:41:26.494Z,22.42
2019-04-21T06:44:54.040Z,21.48
2019-04-21T06:48:15.328Z,22.55
2019-04-21T06:51:48.404Z,22.35
2019-04-21T06:55:10.310Z,22.22
2019-04-21T06:58:27.856Z,20.75
2019-04-21T07:05:15.708Z,22.17
2019-04-21T07:08:44.645Z,21.27
2019-04-21T07:12:00.001Z,20.57
2019-04-21T07:15:30.436Z,20.25
2019-04-21T07:22:24.543Z,21.37
2019-04-21T07:25:45.845Z,21.15
2019-04-21T07:29:17.062Z,19.87
2019-04-21T07:32:36.517Z,21.07
2019-04-21T07:36:06.341Z,20.12
2019-04-21T07:39:25.546Z,19.98
2019-04-21T07:42:47.782Z,19.07
2019-04-21T07:46:10.608Z,19.80
2019-04-21T07:49:52.861Z,18.95
2019-04-21T07:53:22.784Z,19.98
2019-04-21T07:56:32.442Z,19.92
2019-04-21T08:03:37.247Z,21.62
2019-04-21T08:06:58.219Z,18.85
2019-04-21T08:10:22.546Z,20.88
2019-04-21T08:13:48.660Z,18.77
2019-04-21T08:17:14.340Z,19.80
2019-04-21T08:20:34.933Z,17.95
2019-04-21T08:24:04.719Z,18.87
2019-04-21T08:27:37.109Z,18.02
2019-04-21T08:30:56.837Z,18.48
2019-04-21T08:34:25.020Z,17.92
2019-04-21T08:37:46.068Z,20.90
2019-04-21T08:41:08.010Z,19.73
2019-04-21T08:44:44.817Z,17.92
2019-04-21T08:48:02.751Z,18.57
2019-04-21T08:51:27.688Z,18.62
2019-04-21T08:54:55.886Z,18.65
2019-04-21T08:58:34.028Z,19.50
2019-04-21T09:02:23.701Z,20.37
2019-04-21T09:05:47.933Z,20.25
2019-04-21T09:09:14.382Z,19.23
2019-04-21T09:12:34.679Z,18.90
2019-04-21T09:15:58.018Z,19.67
2019-04-21T09:19:38.511Z,19.50
2019-04-21T09:22:47.921Z,19.92
2019-04-21T09:26:18.652Z,19.25
2019-04-21T09:29:32.408Z,19.17
2019-04-21T09:32:52.170Z,22.58
2019-04-21T09:36:17.934Z,17.30
2019-04-21T09:39:40.977Z,15.93
2019-04-21T09:43:07.996Z,19.00
2019-04-21T09:46:29.909Z,27.27
2019-04-21T09:49:54.321Z,13.85
2019-04-21T09:53:28.726Z,13.35
2019-04-21T09:56:52.112Z,12.75
2019-04-21T10:00:15.213Z,13.53
2019-04-21T10:03:41.384Z,12.47
2019-04-21T10:06:58.779Z,15.40
2019-04-21T10:10:23.089Z,14.10
2019-04-21T10:13:46.366Z,14.05
2019-04-21T10:17:25.365Z,15.35
2019-04-21T10:20:49.183Z,15.00
2019-04-21T10:24:12.579Z,16.12
2019-04-21T10:27:36.975Z,17.35
2019-04-21T10:31:00.785Z,19.50
2019-04-21T10:34:29.301Z,17.32
2019-04-21T10:38:03.408Z,16.32
2019-04-21T10:41:19.270Z,17.02
2019-04-21T10:44:43.238Z,17.30
2019-04-21T10:48:07.323Z,15.75
2019-04-21T10:51:30.911Z,16.20
2019-04-21T10:55:12.846Z,16.40
2019-04-21T10:58:24.534Z,16.60
2019-04-21T11:01:47.767Z,14.93
2019-04-21T11:05:12.404Z,16.15
2019-04-21T11:08:41.556Z,15.25
2019-04-21T11:12:02.003Z,14.38
2019-04-21T11:15:25.329Z,17.23
2019-04-21T11:18:48.473Z,14.75
2019-04-21T11:22:12.664Z,15.93
2019-04-21T11:25:37.751Z,16.55
2019-04-21T11:29:01.209Z,15.88
2019-04-21T11:32:25.230Z,17.48
2019-04-21T11:35:49.019Z,16.60
2019-04-21T11:39:31.577Z,17.77
2019-04-21T11:42:48.097Z,16.82
2019-04-21T11:46:12.764Z,15.15
2019-04-21T11:49:36.989Z,17.55
2019-04-21T11:53:01.158Z,16.12
2019-04-21T11:56:25.102Z,15.90
2019-04-21T11:59:48.334Z,17.90
2019-04-21T12:03:31.720Z,16.55
2019-04-21T12:07:29.331Z,15.90
2019-04-21T12:11:11.925Z,15.13
2019-04-21T12:14:47.998Z,15.00
2019-04-21T12:18:32.448Z,13.25
2019-04-21T12:22:31.937Z,14.75
2019-04-21T12:26:13.844Z,13.08
2019-04-21T12:30:11.680Z,13.35
2019-04-21T12:33:56.575Z,14.00
2019-04-21T12:37:33.034Z,12.73
2019-04-21T12:41:08.707Z,12.35
2019-04-21T12:44:45.448Z,12.28
2019-04-21T12:48:21.929Z,11.28
2019-04-21T12:52:05.888Z,10.88
2019-04-21T12:55:49.909Z,10.63
2019-04-21T12:59:34.531Z,12.53
2019-04-21T13:03:30.568Z,11.48
2019-04-21T13:07:13.360Z,12.80
2019-04-21T13:11:11.487Z,12.07
2019-04-21T13:14:47.481Z,10.85
2019-04-21T13:18:30.973Z,11.45
2019-04-21T13:22:14.191Z,12.35
2019-04-21T13:25:56.828Z,10.88
2019-04-21T13:29:32.660Z,12.60
2019-04-21T13:33:15.538Z,12.78
2019-04-21T13:36:59.309Z,12.98
2019-04-21T13:41:22.854Z,11.53
2019-04-21T13:44:50.987Z,11.90
2019-04-21T13:48:48.423Z,12.10
2019-04-21T13:52:31.020Z,12.10
2019-04-21T13:56:06.977Z,11.97
2019-04-21T13:59:51.306Z,11.60
2019-04-21T14:03:35.476Z,11.95
2019-04-21T14:07:26.029Z,12.37
2019-04-21T14:11:09.285Z,11.43
2019-04-21T14:14:52.511Z,12.28
2019-04-21T14:18:49.947Z,11.73
2019-04-21T14:22:26.405Z,11.33
2019-04-21T14:26:01.815Z,12.60
2019-04-21T14:29:37.773Z,12.10
2019-04-21T14:33:20.537Z,11.53
2019-04-21T14:37:04.601Z,12.13
2019-04-21T14:40:48.189Z,12.60
2019-04-21T14:44:45.078Z,12.73
2019-04-21T14:48:48.687Z,11.93
2019-04-21T14:52:28.733Z,13.03
2019-04-21T14:56:11.237Z,12.55
2019-04-21T14:59:35.205Z,11.45
2019-04-21T15:03:25.903Z,13.05
2019-04-21T15:07:01.669Z,12.50
2019-04-21T15:14:42.291Z,13.18
2019-04-21T15:18:26.438Z,12.85
2019-04-21T15:22:02.743Z,12.58
2019-04-21T15:25:38.487Z,12.70
2019-04-21T15:29:21.098Z,12.10
2019-04-21T15:33:04.598Z,11.97
2019-04-21T15:36:48.210Z,12.93
2019-04-21T15:40:40.406Z,12.65
2019-04-21T15:44:16.551Z,11.55
2019-04-21T15:48:13.997Z,11.90
2019-04-21T15:51:58.017Z,11.78
2019-04-21T15:56:20.567Z,11.48
2019-04-21T16:00:30.961Z,10.43
2019-04-21T16:04:10.733Z,10.85
2019-04-21T16:07:54.182Z,11.93
2019-04-21T16:11:42.078Z,12.68
2019-04-21T16:15:26.144Z,12.78
2019-04-21T16:19:23.025Z,12.53
2019-04-21T16:23:00.188Z,13.22
2019-04-21T16:26:36.098Z,11.73
2019-04-21T16:30:12.133Z,12.43
2019-04-21T16:33:54.947Z,12.43
2019-04-21T16:37:30.239Z,15.05
2019-04-21T16:41:14.132Z,16.77
2019-04-21T16:44:57.283Z,14.63
2019-04-21T16:48:40.157Z,12.40
2019-04-21T16:52:23.649Z,11.78
2019-04-21T16:56:33.167Z,11.43
2019-04-21T17:00:16.347Z,10.78
2019-04-21T17:04:00.319Z,11.08
2019-04-21T17:07:47.422Z,10.55
2019-04-21T17:11:33.651Z,11.08
2019-04-21T17:15:51.901Z,9.40
2019-04-21T17:23:15.705Z,11.30
2019-04-21T17:26:59.560Z,11.08
2019-04-21T17:30:36.469Z,10.60
2019-04-21T17:34:22.951Z,10.13
2019-04-21T17:38:16.402Z,10.65
2019-04-21T17:42:11.743Z,10.68
2019-04-21T17:45:57.450Z,10.50
2019-04-21T17:49:41.132Z,10.63
2019-04-21T17:53:53.796Z,9.03
2019-04-21T17:57:58.126Z,10.00
2019-04-21T18:01:47.429Z,10.28
2019-04-21T18:05:15.240Z,9.78
2019-04-21T18:08:38.292Z,10.15
2019-04-21T18:12:01.566Z,9.18
2019-04-21T18:15:23.051Z,10.30
2019-04-21T18:18:32.612Z,9.93
2019-04-21T18:22:34.791Z,9.00
2019-04-21T18:25:58.219Z,9.43
2019-04-21T18:29:15.839Z,8.98
2019-04-21T18:32:42.359Z,9.50
2019-04-21T18:36:36.291Z,9.53
2019-04-21T18:40:06.806Z,9.65
2019-04-21T18:44:00.441Z,9.23
2019-04-21T18:47:20.058Z,9.05
2019-04-21T18:50:51.070Z,9.38
2019-04-21T18:54:31.381Z,8.78
2019-04-21T18:57:44.418Z,8.78
2019-04-21T19:01:11.830Z,8.73
2019-04-21T19:04:35.133Z,10.28
2019-04-21T19:08:14.915Z,10.58
2019-04-21T19:11:42.915Z,10.38
2019-04-21T19:15:08.530Z,10.53
2019-04-21T19:18:39.836Z,10.98
2019-04-21T19:21:59.896Z,10.00
2019-04-21T19:25:23.596Z,9.93
2019-04-21T19:28:56.069Z,9.93
2019-04-21T19:32:17.151Z,10.38
2019-04-21T19:35:21.459Z,11.38
2019-04-21T19:38:55.994Z,10.98
2019-04-21T19:42:19.126Z,10.85
2019-04-21T19:45:49.787Z,11.00
2019-04-21T19:49:27.569Z,10.55
2019-04-21T19:52:41.041Z,12.20
2019-04-21T19:55:52.139Z,12.40
2019-04-21T19:59:22.179Z,12.00
2019-04-21T20:02:42.712Z,12.43
2019-04-21T20:06:16.889Z,12.45
2019-04-21T20:09:45.192Z,12.93
2019-04-21T20:13:26.025Z,14.03
2019-04-21T20:16:41.609Z,14.03
2019-04-21T20:19:47.857Z,15.25
2019-04-21T20:23:18.048Z,14.95
2019-04-21T20:26:41.583Z,14.78
2019-04-21T20:30:21.779Z,17.52
2019-04-21T20:33:55.194Z,15.28
2019-04-21T20:37:19.365Z,14.85
2019-04-21T20:40:33.005Z,14.68
2019-04-21T20:44:06.266Z,15.15
2019-04-21T20:47:22.892Z,14.40
2019-04-21T20:50:57.684Z,14.83
2019-04-21T20:54:20.788Z,15.75
2019-04-21T20:57:43.372Z,15.55
2019-04-21T21:01:25.450Z,15.28
2019-04-21T21:04:28.070Z,17.62
2019-04-21T21:08:10.209Z,17.70
2019-04-21T21:11:35.323Z,17.85
2019-04-21T21:14:48.996Z,16.67
2019-04-21T21:18:44.966Z,17.60
2019-04-21T21:21:39.998Z,18.23
2019-04-21T21:25:11.733Z,19.87
2019-04-21T21:28:32.660Z,18.45
2019-04-21T21:32:09.754Z,19.80
2019-04-21T21:35:21.792Z,18.05
2019-04-21T21:38:54.580Z,19.60
2019-04-21T21:42:02.826Z,18.62
2019-04-21T21:45:27.528Z,18.35
2019-04-21T21:49:01.759Z,19.17
2019-04-21T21:52:29.721Z,20.68
2019-04-21T21:55:40.576Z,20.88
2019-04-21T21:59:13.746Z,21.00
2019-04-21T22:02:37.131Z,21.05
2019-04-21T22:06:01.896Z,22.02
2019-04-21T22:09:20.158Z,21.35
2019-04-21T22:12:52.884Z,22.55
2019-04-21T22:16:13.569Z,23.10
2019-04-21T22:20:01.894Z,21.68
2019-04-21T22:23:04.084Z,21.02
2019-04-21T22:26:25.233Z,23.57
2019-04-21T22:29:53.490Z,21.60
2019-04-21T22:33:17.360Z,21.77
2019-04-21T22:36:48.724Z,22.45
2019-04-21T22:40:16.671Z,24.18
2019-04-21T22:43:36.447Z,24.52
2019-04-21T22:47:06.148Z,23.35
2019-04-21T22:50:30.691Z,22.27
2019-04-21T22:53:57.614Z,24.80
2019-04-21T22:57:23.749Z,24.55
2019-04-21T23:00:51.270Z,25.72
2019-04-21T23:04:14.030Z,24.63
2019-04-21T23:07:43.737Z,25.20
2019-04-21T23:11:06.544Z,28.20
2019-04-21T23:14:27.967Z,27.73
2019-04-21T23:18:09.287Z,27.37
2019-04-21T23:21:30.524Z,27.27
2019-04-21T23:25:03.384Z,25.95
2019-04-21T23:28:21.008Z,26.02
2019-04-21T23:31:51.762Z,26.90
2019-04-21T23:35:01.655Z,27.77
2019-04-21T23:38:31.971Z,27.90
2019-04-21T23:41:51.684Z,25.10
2019-04-21T23:45:12.490Z,26.68
2019-04-21T23:48:55.950Z,24.85
2019-04-21T23:52:08.047Z,28.20
2019-04-21T23:55:27.349Z,26.75
2019-04-21T23:58:59.008Z,27.17
